RJOR(METAR)
05/21 18:00
METAR RJOR 210900Z 29007KT 9999 FEW040 BKN/// 19/13 Q1005 RMK 1CU040
A2970=
戻る
トップページへ戻る
IMOC Co,.Ltd.